Terminal Aerodrome Forecast
Issued by NWS Charleston, SC

Home | Current Version | Previous Version | Text Only | Print | Product List | Glossary On
Versions: 1 2 3 4 5 6 7 8 9 10 11 12 13 14 15 16 17 18 19 20 21
000
FTUS42 KCHS 121200 AAA
TAFCHS
TAF AMD
KCHS 121255Z 1213/1312 VRB03KT P6SM VCSH FEW020 BKN035
      TEMPO 1213/1215 4SM TSRA BR BKN005 BKN015CB
     FM121600 VRB05KT P6SM VCTS SCT025CB SCT050 BKN120
     FM122000 15007KT P6SM SCT035 SCT080
     FM130300 VRB03KT P6SM MIFG SCT015 SCT100=

USA.gov is the U.S. government's official web portal to all federal, state and local government web resources and services.